createdAt,value
2023-04-05T00:00:48.355Z,98131.56
2023-04-05T00:03:19.010Z,98133.56
2023-04-05T00:05:50.388Z,98131.09
2023-04-05T00:08:24.201Z,98119.69
2023-04-05T00:10:51.799Z,98126.28
2023-04-05T00:13:19.543Z,98125.06
2023-04-05T00:15:48.038Z,98127.78
2023-04-05T00:18:22.090Z,98123.41
2023-04-05T00:20:53.400Z,98112.00
2023-04-05T00:23:25.858Z,98119.50
2023-04-05T00:25:53.473Z,98112.69
2023-04-05T00:28:21.230Z,98111.78
2023-04-05T00:30:48.689Z,98115.38
2023-04-05T00:33:16.461Z,98115.25
2023-04-05T00:35:44.021Z,98110.19
2023-04-05T00:38:11.540Z,98112.66
2023-04-05T00:40:39.469Z,98113.47
2023-04-05T00:43:07.470Z,98110.53
2023-04-05T00:45:34.954Z,98108.31
2023-04-05T00:48:02.493Z,98112.00
2023-04-05T00:50:33.268Z,98103.94
2023-04-05T00:53:01.814Z,98096.44
2023-04-05T00:55:29.718Z,98085.91
2023-04-05T00:57:57.415Z,98098.56
2023-04-05T01:00:26.677Z,98090.28
2023-04-05T01:03:02.052Z,98087.81
2023-04-05T01:05:44.660Z,98090.72
2023-04-05T01:08:33.583Z,98095.09
2023-04-05T01:11:06.012Z,98096.53
2023-04-05T01:13:33.864Z,98087.59
2023-04-05T01:16:01.533Z,98089.53
2023-04-05T01:18:31.428Z,98090.00
2023-04-05T01:21:26.055Z,98093.41
2023-04-05T01:24:21.428Z,98090.16
2023-04-05T01:27:10.253Z,98094.28
2023-04-05T01:30:10.205Z,98086.63
2023-04-05T01:33:06.473Z,98090.88
2023-04-05T01:35:49.888Z,98082.38
2023-04-05T01:38:21.926Z,98079.56
2023-04-05T01:40:50.012Z,98078.41
2023-04-05T01:43:18.500Z,98069.38
2023-04-05T01:45:47.184Z,98076.00
2023-04-05T01:48:15.543Z,98064.50
2023-04-05T01:50:51.836Z,98066.75
2023-04-05T01:53:19.489Z,98063.16
2023-04-05T01:55:46.941Z,98066.81
2023-04-05T01:58:14.434Z,98057.66
2023-04-05T02:00:42.268Z,98062.50
2023-04-05T02:03:10.226Z,98056.59
2023-04-05T02:05:37.893Z,98060.84
2023-04-05T02:08:05.833Z,98052.16
2023-04-05T02:10:33.538Z,98059.06
2023-04-05T02:13:01.348Z,98052.91
2023-04-05T02:15:30.721Z,98043.22
2023-04-05T02:18:02.505Z,98045.56
2023-04-05T02:20:30.357Z,98048.66
2023-04-05T02:22:58.771Z,98042.41
2023-04-05T02:25:26.654Z,98042.31
2023-04-05T02:27:54.067Z,98039.88
2023-04-05T02:30:22.078Z,98033.91
2023-04-05T02:32:49.589Z,98032.09
2023-04-05T02:35:17.668Z,98033.59
2023-04-05T02:37:45.225Z,98040.53
2023-04-05T02:40:15.633Z,98035.66
2023-04-05T02:42:43.212Z,98044.97
2023-04-05T02:45:11.409Z,98029.28
2023-04-05T02:47:38.971Z,98030.84
2023-04-05T02:50:07.444Z,98031.22
2023-04-05T02:52:42.370Z,98021.28
2023-04-05T02:55:10.090Z,98018.69
2023-04-05T02:57:37.716Z,98019.53
2023-04-05T03:00:21.241Z,98012.47
2023-04-05T03:02:49.116Z,98017.91
2023-04-05T03:05:18.999Z,98016.31
2023-04-05T03:07:52.543Z,98016.63
2023-04-05T03:10:25.554Z,98006.69
2023-04-05T03:12:59.055Z,98000.75
2023-04-05T03:15:28.678Z,98003.59
2023-04-05T03:17:58.099Z,98006.09
2023-04-05T03:20:26.065Z,97994.53
2023-04-05T03:22:58.043Z,98007.06
2023-04-05T03:25:30.080Z,97998.81
2023-04-05T03:27:58.338Z,98003.81
2023-04-05T03:30:31.075Z,98003.19
2023-04-05T03:33:06.491Z,98002.41
2023-04-05T03:35:46.335Z,97996.50
2023-04-05T03:38:14.969Z,97990.78
2023-04-05T03:40:55.130Z,97992.66
2023-04-05T03:43:22.608Z,97984.31
2023-04-05T03:45:50.106Z,97989.09
2023-04-05T03:48:20.504Z,97984.94
2023-04-05T03:50:49.688Z,97985.25
2023-04-05T03:53:18.454Z,97985.25
2023-04-05T03:55:50.697Z,97995.47
2023-04-05T03:58:22.577Z,97984.75
2023-04-05T04:00:50.803Z,97985.19
2023-04-05T04:03:21.552Z,97982.78
2023-04-05T04:05:52.792Z,97986.75
2023-04-05T04:08:21.542Z,97974.41
2023-04-05T04:10:50.140Z,97986.94
2023-04-05T04:13:37.748Z,97983.06
2023-04-05T04:16:28.603Z,97976.19
2023-04-05T04:19:14.720Z,97981.50
2023-04-05T04:22:05.187Z,97978.75
2023-04-05T04:24:53.899Z,97967.38
2023-04-05T04:27:31.816Z,97968.06
2023-04-05T04:30:22.901Z,97971.56
2023-04-05T04:33:10.626Z,97963.59
2023-04-05T04:36:13.991Z,97957.56
2023-04-05T04:38:59.554Z,97941.09
2023-04-05T04:41:50.819Z,97944.34
2023-04-05T04:44:31.644Z,97941.81
2023-04-05T04:47:22.371Z,97934.44
2023-04-05T04:50:07.755Z,97945.09
2023-04-05T04:52:35.459Z,97933.91
2023-04-05T04:55:03.305Z,97941.81
2023-04-05T04:57:31.047Z,97927.84
2023-04-05T04:59:58.570Z,97921.41
2023-04-05T05:02:29.815Z,97926.91
2023-04-05T05:04:58.555Z,97924.53
2023-04-05T05:07:26.244Z,97921.41
2023-04-05T05:09:54.778Z,97920.94
2023-04-05T05:12:23.944Z,97926.66
2023-04-05T05:14:51.428Z,97915.97
2023-04-05T05:17:21.128Z,97918.47
2023-04-05T05:19:48.592Z,97916.88
2023-04-05T05:22:16.512Z,97909.03
2023-04-05T05:24:45.502Z,97917.81
2023-04-05T05:27:13.210Z,97905.06
2023-04-05T05:29:40.834Z,97899.19
2023-04-05T05:32:09.778Z,97907.53
2023-04-05T05:34:37.951Z,97897.91
2023-04-05T05:37:06.286Z,97898.88
2023-04-05T05:39:33.682Z,97898.81
2023-04-05T05:42:01.180Z,97891.97
2023-04-05T05:44:29.643Z,97899.81
2023-04-05T05:46:57.424Z,97897.34
2023-04-05T05:49:25.464Z,97890.03
2023-04-05T05:51:57.116Z,97885.59
2023-04-05T05:54:25.875Z,97893.06
2023-04-05T05:56:53.372Z,97878.53
2023-04-05T05:59:21.016Z,97871.59
2023-04-05T06:01:49.168Z,97866.75
2023-04-05T06:04:16.979Z,97872.06
2023-04-05T06:06:47.828Z,97867.97
2023-04-05T06:09:16.353Z,97866.72
2023-04-05T06:11:55.299Z,97859.22
2023-04-05T06:14:24.516Z,97851.00
2023-04-05T06:16:52.495Z,97846.66
2023-04-05T06:19:20.033Z,97841.53
2023-04-05T06:21:47.529Z,97837.84
2023-04-05T06:24:15.047Z,97851.38
2023-04-05T06:26:42.502Z,97842.00
2023-04-05T06:29:10.262Z,97840.22
2023-04-05T06:31:38.374Z,97848.00
2023-04-05T06:34:06.197Z,97830.88
2023-04-05T06:36:34.573Z,97821.50
2023-04-05T06:39:02.309Z,97827.84
2023-04-05T06:41:29.865Z,97827.44
2023-04-05T06:43:57.352Z,97822.06
2023-04-05T06:46:25.121Z,97817.16
2023-04-05T06:48:53.670Z,97830.06
2023-04-05T06:51:21.356Z,97821.78
2023-04-05T06:53:48.813Z,97835.44
2023-04-05T06:56:16.322Z,97832.50
2023-04-05T06:58:44.527Z,97828.53
2023-04-05T07:01:12.476Z,97814.63
2023-04-05T07:03:40.148Z,97816.34
2023-04-05T07:06:10.018Z,97809.94
2023-04-05T07:08:37.914Z,97806.19
2023-04-05T07:11:05.377Z,97811.16
2023-04-05T07:13:32.859Z,97794.00
2023-04-05T07:16:01.984Z,97797.31
2023-04-05T07:18:30.433Z,97804.34
2023-04-05T07:21:04.272Z,97797.94
2023-04-05T07:23:32.110Z,97793.13
2023-04-05T07:26:07.723Z,97781.94
2023-04-05T07:28:36.166Z,97774.09
2023-04-05T07:31:08.118Z,97779.63
2023-04-05T07:33:35.727Z,97774.50
2023-04-05T07:36:03.754Z,97758.63
2023-04-05T07:38:31.302Z,97753.16
2023-04-05T07:40:59.048Z,97759.63
2023-04-05T07:43:26.740Z,97755.25
2023-04-05T07:46:02.486Z,97757.00
2023-04-05T07:48:30.231Z,97750.72
2023-04-05T07:50:58.130Z,97749.81
2023-04-05T07:53:26.152Z,97734.31
2023-04-05T07:55:53.904Z,97724.22
2023-04-05T07:58:22.948Z,97725.84
2023-04-05T08:00:50.815Z,97733.44
2023-04-05T08:03:18.493Z,97733.94
2023-04-05T08:05:46.040Z,97729.44
2023-04-05T08:08:13.799Z,97719.16
2023-04-05T08:10:41.717Z,97707.31
2023-04-05T08:13:09.316Z,97719.66
2023-04-05T08:15:36.904Z,97713.72
2023-04-05T08:18:04.687Z,97718.78
2023-04-05T08:20:32.287Z,97710.84
2023-04-05T08:22:59.803Z,97704.53
2023-04-05T08:25:27.255Z,97707.44
2023-04-05T08:27:54.791Z,97694.44
2023-04-05T08:30:23.639Z,97698.91
2023-04-05T08:32:51.252Z,97682.78
2023-04-05T08:35:18.816Z,97685.88
2023-04-05T08:37:47.876Z,97680.66
2023-04-05T08:40:15.481Z,97681.97
2023-04-05T08:42:47.740Z,97684.69
2023-04-05T08:45:19.100Z,97683.84
2023-04-05T08:47:49.220Z,97675.84
2023-04-05T08:50:16.758Z,97660.16
2023-04-05T08:52:50.147Z,97666.34
2023-04-05T08:55:17.790Z,97664.56
2023-04-05T08:57:53.979Z,97661.41
2023-04-05T09:00:21.940Z,97652.59
2023-04-05T09:02:54.734Z,97657.28
2023-04-05T09:05:24.470Z,97649.16
2023-04-05T09:07:52.859Z,97644.41
2023-04-05T09:10:21.888Z,97650.59
2023-04-05T09:12:51.896Z,97640.06
2023-04-05T09:15:24.536Z,97636.72
2023-04-05T09:17:53.028Z,97641.63
2023-04-05T09:20:21.249Z,97631.78
2023-04-05T09:22:48.846Z,97626.69
2023-04-05T09:25:36.792Z,97635.56
2023-04-05T09:28:04.776Z,97629.78
2023-04-05T09:30:33.484Z,97645.44
2023-04-05T09:33:02.571Z,97620.66
2023-04-05T09:35:34.196Z,97621.19
2023-04-05T09:38:03.167Z,97611.16
2023-04-05T09:40:43.598Z,97609.09
2023-04-05T09:43:12.914Z,97607.59
2023-04-05T09:45:42.669Z,97604.19
2023-04-05T09:48:10.643Z,97600.81
2023-04-05T09:50:38.882Z,97600.41
2023-04-05T09:53:16.582Z,97593.41
2023-04-05T09:55:46.198Z,97586.31
2023-04-05T09:58:19.215Z,97577.38
2023-04-05T10:00:59.948Z,97585.25
2023-04-05T10:03:31.096Z,97562.97
2023-04-05T10:05:58.820Z,97568.34
2023-04-05T10:08:26.749Z,97561.41
2023-04-05T10:10:56.600Z,97570.84
2023-04-05T10:13:24.166Z,97554.81
2023-04-05T10:15:55.524Z,97553.25
2023-04-05T10:18:29.746Z,97546.22
2023-04-05T10:21:00.674Z,97532.59
2023-04-05T10:23:35.354Z,97553.31
2023-04-05T10:26:20.397Z,97547.09
2023-04-05T10:29:02.864Z,97537.06
2023-04-05T10:31:38.115Z,97521.69
2023-04-05T10:34:19.243Z,97525.69
2023-04-05T10:36:54.654Z,97537.44
2023-04-05T10:39:35.786Z,97537.56
2023-04-05T10:42:21.158Z,97531.88
2023-04-05T10:45:00.317Z,97520.56
2023-04-05T10:47:29.197Z,97524.06
2023-04-05T10:49:59.298Z,97519.53
2023-04-05T10:52:27.945Z,97524.22
2023-04-05T10:54:58.233Z,97519.25
2023-04-05T10:57:26.760Z,97512.53
2023-04-05T10:59:55.194Z,97516.81
2023-04-05T11:02:23.280Z,97507.91
2023-04-05T11:04:57.439Z,97505.94
2023-04-05T11:07:25.174Z,97497.72
2023-04-05T11:10:02.899Z,97505.41
2023-04-05T11:12:48.942Z,97503.66
2023-04-05T11:15:28.397Z,97503.47
2023-04-05T11:18:12.225Z,97487.78
2023-04-05T11:20:53.582Z,97493.91
2023-04-05T11:23:25.380Z,97491.13
2023-04-05T11:25:56.428Z,97479.06
2023-04-05T11:28:44.411Z,97488.63
2023-04-05T11:31:21.089Z,97485.66
2023-04-05T11:33:55.627Z,97465.56
2023-04-05T11:36:42.298Z,97478.28
2023-04-05T11:39:19.621Z,97459.50
2023-04-05T11:42:04.496Z,97472.44
2023-04-05T11:44:47.278Z,97472.44
2023-04-05T11:47:18.497Z,97471.97
2023-04-05T11:49:50.640Z,97465.72
2023-04-05T11:52:21.057Z,97470.13
2023-04-05T11:54:49.932Z,97456.44
2023-04-05T11:57:23.189Z,97468.31
2023-04-05T11:59:52.313Z,97463.25
2023-04-05T12:02:20.577Z,97451.66
2023-04-05T12:04:56.390Z,97455.44
2023-04-05T12:07:28.426Z,97458.13
2023-04-05T12:10:14.199Z,97454.66
2023-04-05T12:12:43.899Z,97460.81
2023-04-05T12:15:14.960Z,97459.31
2023-04-05T12:17:50.345Z,97460.97
2023-04-05T12:20:27.455Z,97449.06
2023-04-05T12:22:56.656Z,97452.81
2023-04-05T12:25:25.089Z,97437.06
2023-04-05T12:27:53.521Z,97432.88
2023-04-05T12:30:23.453Z,97442.41
2023-04-05T12:32:53.195Z,97436.78
2023-04-05T12:35:33.104Z,97437.88
2023-04-05T12:38:03.646Z,97424.53
2023-04-05T12:40:33.241Z,97417.63
2023-04-05T12:43:08.564Z,97418.88
2023-04-05T12:45:44.197Z,97413.44
2023-04-05T12:48:22.469Z,97412.13
2023-04-05T12:50:55.327Z,97408.94
2023-04-05T12:53:25.588Z,97398.25
2023-04-05T12:55:55.192Z,97401.38
2023-04-05T12:58:42.829Z,97403.09
2023-04-05T13:01:11.024Z,97402.91
2023-04-05T13:03:38.603Z,97399.47
2023-04-05T13:06:06.152Z,97390.97
2023-04-05T13:08:33.688Z,97386.03
2023-04-05T13:11:01.431Z,97394.28
2023-04-05T13:13:28.904Z,97386.03
2023-04-05T13:15:56.420Z,97382.47
2023-04-05T13:18:23.986Z,97382.34
2023-04-05T13:20:51.374Z,97391.16
2023-04-05T13:23:18.960Z,97386.38
2023-04-05T13:25:46.431Z,97384.25
2023-04-05T13:28:14.011Z,97386.22
2023-04-05T13:30:41.760Z,97383.34
2023-04-05T13:33:09.342Z,97383.03
2023-04-05T13:35:37.172Z,97374.94
2023-04-05T13:38:06.018Z,97384.03
2023-04-05T13:40:33.511Z,97376.97
2023-04-05T13:43:01.522Z,97385.34
2023-04-05T13:45:29.212Z,97381.53
2023-04-05T13:47:56.694Z,97381.00
2023-04-05T13:50:25.104Z,97383.56
2023-04-05T13:52:52.927Z,97376.50
2023-04-05T13:55:20.849Z,97373.78
2023-04-05T13:57:48.343Z,97369.19
2023-04-05T14:00:16.545Z,97370.66
2023-04-05T14:02:44.422Z,97367.72
2023-04-05T14:05:12.057Z,97366.03
2023-04-05T14:07:39.748Z,97371.03
2023-04-05T14:10:07.719Z,97367.63
2023-04-05T14:12:35.623Z,97359.84
2023-04-05T14:15:03.352Z,97359.97
2023-04-05T14:17:31.247Z,97357.22
2023-04-05T14:19:58.812Z,97356.56
2023-04-05T14:22:26.523Z,97357.91
2023-04-05T14:24:54.090Z,97360.09
2023-04-05T14:27:27.107Z,97354.66
2023-04-05T14:29:59.082Z,97366.28
2023-04-05T14:32:26.702Z,97357.72
2023-04-05T14:34:54.354Z,97360.59
2023-04-05T14:37:21.820Z,97356.00
2023-04-05T14:39:49.350Z,97364.69
2023-04-05T14:42:16.827Z,97356.44
2023-04-05T14:44:44.427Z,97368.00
2023-04-05T14:47:12.025Z,97361.28
2023-04-05T14:49:39.549Z,97364.91
2023-04-05T14:52:07.196Z,97363.28
2023-04-05T14:54:34.975Z,97357.69
2023-04-05T14:57:02.604Z,97357.66
2023-04-05T14:59:31.171Z,97352.47
2023-04-05T15:01:58.750Z,97357.84
2023-04-05T15:04:26.438Z,97353.78
2023-04-05T15:06:54.084Z,97351.25
2023-04-05T15:09:21.761Z,97351.13
2023-04-05T15:11:49.354Z,97349.44
2023-04-05T15:14:28.613Z,97349.63
2023-04-05T15:16:58.546Z,97351.56
2023-04-05T15:19:26.242Z,97353.63
2023-04-05T15:21:53.787Z,97353.00
2023-04-05T15:24:21.527Z,97351.31
2023-04-05T15:26:49.089Z,97350.84
2023-04-05T15:29:16.553Z,97352.44
2023-04-05T15:31:44.079Z,97350.25
2023-04-05T15:34:11.674Z,97349.22
2023-04-05T15:36:39.600Z,97346.25
2023-04-05T15:39:07.603Z,97344.78
2023-04-05T15:41:35.415Z,97349.16
2023-04-05T15:44:04.087Z,97346.91
2023-04-05T15:46:31.831Z,97345.47
2023-04-05T15:48:59.769Z,97345.97
2023-04-05T15:51:27.950Z,97339.16
2023-04-05T15:53:55.706Z,97340.94
2023-04-05T15:56:23.705Z,97336.84
2023-04-05T15:58:51.263Z,97334.25
2023-04-05T16:01:19.144Z,97336.16
2023-04-05T16:03:47.109Z,97330.53
2023-04-05T16:06:14.841Z,97334.44
2023-04-05T16:08:42.498Z,97330.59
2023-04-05T16:11:10.133Z,97330.34
2023-04-05T16:13:37.999Z,97319.50
2023-04-05T16:16:07.057Z,97325.03
2023-04-05T16:18:34.710Z,97314.44
2023-04-05T16:21:02.387Z,97312.13
2023-04-05T16:23:30.014Z,97309.56
2023-04-05T16:25:57.602Z,97306.16
2023-04-05T16:28:25.130Z,97299.94
2023-04-05T16:30:53.040Z,97304.69
2023-04-05T16:33:20.572Z,97302.81
2023-04-05T16:35:49.003Z,97296.66
2023-04-05T16:38:16.638Z,97284.78
2023-04-05T16:40:44.880Z,97298.84
2023-04-05T16:43:12.451Z,97288.41
2023-04-05T16:45:40.052Z,97281.50
2023-04-05T16:48:09.075Z,97284.66
2023-04-05T16:50:37.832Z,97282.72
2023-04-05T16:53:05.535Z,97283.16
2023-04-05T16:55:33.072Z,97276.25
2023-04-05T16:58:00.864Z,97281.34
2023-04-05T17:00:29.430Z,97272.09
2023-04-05T17:02:57.208Z,97276.09
2023-04-05T17:05:25.117Z,97277.69
2023-04-05T17:07:53.707Z,97269.91
2023-04-05T17:10:21.540Z,97269.97
2023-04-05T17:12:49.131Z,97271.19
2023-04-05T17:15:17.115Z,97261.94
2023-04-05T17:17:44.734Z,97266.25
2023-04-05T17:20:12.889Z,97271.44
2023-04-05T17:22:41.811Z,97269.91
2023-04-05T17:25:09.659Z,97265.28
2023-04-05T17:27:37.206Z,97277.66
2023-04-05T17:30:05.552Z,97269.22
2023-04-05T17:32:35.102Z,97268.06
2023-04-05T17:35:02.726Z,97274.28
2023-04-05T17:37:30.862Z,97272.13
2023-04-05T17:39:58.399Z,97272.16
2023-04-05T17:42:25.996Z,97269.56
2023-04-05T17:44:55.419Z,97268.81
2023-04-05T17:47:24.278Z,97265.09
2023-04-05T17:49:51.973Z,97265.50
2023-04-05T17:52:20.609Z,97268.69
2023-04-05T17:54:48.252Z,97269.09
2023-04-05T17:57:18.420Z,97272.25
2023-04-05T17:59:46.038Z,97258.34
2023-04-05T18:02:13.821Z,97262.31
2023-04-05T18:04:41.415Z,97261.50
2023-04-05T18:07:09.117Z,97266.63
2023-04-05T18:09:38.778Z,97261.22
2023-04-05T18:12:07.031Z,97263.53
2023-04-05T18:14:36.602Z,97262.47
2023-04-05T18:17:07.833Z,97258.44
2023-04-05T18:19:35.826Z,97252.03
2023-04-05T18:22:03.474Z,97269.16
2023-04-05T18:24:31.614Z,97257.56
2023-04-05T18:26:59.397Z,97251.41
2023-04-05T18:29:31.215Z,97247.88
2023-04-05T18:31:59.350Z,97241.00
2023-04-05T18:34:27.253Z,97251.31
2023-04-05T18:36:54.804Z,97257.97
2023-04-05T18:39:22.389Z,97255.25
2023-04-05T18:41:50.144Z,97250.56
2023-04-05T18:44:17.725Z,97242.03
2023-04-05T18:46:45.656Z,97252.16
2023-04-05T18:49:16.348Z,97256.44
2023-04-05T18:51:43.919Z,97244.81
2023-04-05T18:54:11.678Z,97242.84
2023-04-05T18:56:39.222Z,97240.50
2023-04-05T18:59:07.108Z,97236.66
2023-04-05T19:01:34.826Z,97230.03
2023-04-05T19:04:02.424Z,97231.22
2023-04-05T19:06:30.263Z,97229.00
2023-04-05T19:09:03.140Z,97231.66
2023-04-05T19:11:30.878Z,97231.31
2023-04-05T19:14:00.674Z,97229.78
2023-04-05T19:16:28.406Z,97226.34
2023-04-05T19:19:07.784Z,97228.19
2023-04-05T19:21:35.772Z,97225.97
2023-04-05T19:24:03.424Z,97229.06
2023-04-05T19:26:32.514Z,97224.00
2023-04-05T19:29:25.591Z,97229.53
2023-04-05T19:32:01.357Z,97210.84
2023-04-05T19:34:29.102Z,97227.13
2023-04-05T19:36:56.833Z,97226.41
2023-04-05T19:39:25.749Z,97221.00
2023-04-05T19:41:53.446Z,97224.53
2023-04-05T19:44:39.536Z,97221.88
2023-04-05T19:47:11.401Z,97230.63
2023-04-05T19:49:42.755Z,97228.53
2023-04-05T19:52:13.330Z,97224.56
2023-04-05T19:54:43.917Z,97214.91
2023-04-05T19:57:18.133Z,97218.78
2023-04-05T19:59:46.284Z,97211.94
2023-04-05T20:02:37.092Z,97208.66
2023-04-05T20:05:14.597Z,97217.56
2023-04-05T20:07:42.479Z,97214.81
2023-04-05T20:10:21.177Z,97221.69
2023-04-05T20:12:49.823Z,97218.41
2023-04-05T20:15:36.248Z,97218.63
2023-04-05T20:18:06.961Z,97225.47
2023-04-05T20:20:34.782Z,97214.78
2023-04-05T20:23:07.695Z,97221.78
2023-04-05T20:25:42.287Z,97223.66
2023-04-05T20:28:38.360Z,97226.19
2023-04-05T20:31:18.086Z,97224.91
2023-04-05T20:33:50.449Z,97210.34
2023-04-05T20:36:20.969Z,97211.13
2023-04-05T20:38:50.096Z,97205.38
2023-04-05T20:41:20.041Z,97203.91
2023-04-05T20:43:47.925Z,97198.56
2023-04-05T20:46:16.773Z,97202.53
2023-04-05T20:48:45.394Z,97198.34
2023-04-05T20:51:14.299Z,97206.91
2023-04-05T20:53:42.286Z,97205.41
2023-04-05T20:56:11.588Z,97212.34
2023-04-05T20:58:40.838Z,97210.81
2023-04-05T21:01:10.037Z,97208.59
2023-04-05T21:03:40.535Z,97217.84
2023-04-05T21:06:09.877Z,97212.13
2023-04-05T21:08:39.246Z,97212.88
2023-04-05T21:11:07.973Z,97213.72
2023-04-05T21:13:36.073Z,97211.47
2023-04-05T21:16:04.153Z,97214.94
2023-04-05T21:18:31.785Z,97211.13
2023-04-05T21:21:00.864Z,97212.31
2023-04-05T21:23:29.840Z,97220.44
2023-04-05T21:25:59.077Z,97213.13
2023-04-05T21:28:27.326Z,97206.94
2023-04-05T21:30:55.038Z,97205.41
2023-04-05T21:33:22.822Z,97202.31
2023-04-05T21:35:51.122Z,97194.59
2023-04-05T21:38:18.944Z,97202.31
2023-04-05T21:40:46.438Z,97181.47
2023-04-05T21:43:14.032Z,97198.78
2023-04-05T21:45:41.640Z,97198.00
2023-04-05T21:48:09.232Z,97196.00
2023-04-05T21:50:37.732Z,97196.81
2023-04-05T21:53:07.494Z,97194.50
2023-04-05T21:55:35.159Z,97198.72
2023-04-05T21:58:02.750Z,97189.44
2023-04-05T22:00:30.290Z,97189.09
2023-04-05T22:02:58.038Z,97198.84
2023-04-05T22:05:36.415Z,97193.41
2023-04-05T22:08:07.006Z,97185.66
2023-04-05T22:10:36.028Z,97192.28
2023-04-05T22:13:03.723Z,97191.13
2023-04-05T22:15:31.434Z,97191.53
2023-04-05T22:17:59.138Z,97189.97
2023-04-05T22:20:26.838Z,97193.09
2023-04-05T22:22:54.421Z,97203.94
2023-04-05T22:25:22.131Z,97195.41
2023-04-05T22:27:49.862Z,97191.13
2023-04-05T22:30:17.487Z,97196.97
2023-04-05T22:32:45.635Z,97194.66
2023-04-05T22:35:13.164Z,97194.66
2023-04-05T22:37:41.078Z,97191.13
2023-04-05T22:40:09.596Z,97192.69
2023-04-05T22:42:38.491Z,97196.50
2023-04-05T22:45:07.724Z,97192.28
2023-04-05T22:47:35.788Z,97186.47
2023-04-05T22:50:03.351Z,97177.56
2023-04-05T22:52:31.122Z,97184.16
2023-04-05T22:54:58.639Z,97180.28
2023-04-05T22:57:26.414Z,97180.34
2023-04-05T22:59:54.034Z,97170.66
2023-04-05T23:02:23.238Z,97178.03
2023-04-05T23:04:53.475Z,97169.06
2023-04-05T23:07:21.031Z,97171.47
2023-04-05T23:09:48.670Z,97169.56
2023-04-05T23:12:16.703Z,97178.03
2023-04-05T23:14:44.275Z,97175.72
2023-04-05T23:17:12.016Z,97178.56
2023-04-05T23:19:39.457Z,97163.88
2023-04-05T23:22:07.147Z,97168.56
2023-04-05T23:24:34.758Z,97170.88
2023-04-05T23:27:02.397Z,97183.66
2023-04-05T23:29:29.899Z,97194.16
2023-04-05T23:31:57.525Z,97187.94
2023-04-05T23:34:25.115Z,97196.47
2023-04-05T23:36:52.681Z,97203.84
2023-04-05T23:39:20.239Z,97211.19
2023-04-05T23:41:47.877Z,97215.50
2023-04-05T23:44:16.157Z,97225.19
2023-04-05T23:46:43.658Z,97221.34
2023-04-05T23:49:11.282Z,97231.78
2023-04-05T23:51:38.885Z,97221.75
2023-04-05T23:54:06.717Z,97224.09
2023-04-05T23:56:38.203Z,97222.94
2023-04-05T23:59:05.902Z,97223.75
